createdAt,value
2022-11-13T00:01:36.986Z,10.83
2022-11-13T00:04:04.693Z,10.85
2022-11-13T00:06:33.340Z,10.88
2022-11-13T00:09:02.329Z,10.92
2022-11-13T00:11:30.026Z,10.88
2022-11-13T00:13:57.664Z,10.93
2022-11-13T00:16:25.275Z,10.97
2022-11-13T00:18:52.951Z,11.07
2022-11-13T00:21:22.781Z,11.06
2022-11-13T00:23:51.497Z,11.10
2022-11-13T00:26:21.910Z,11.10
2022-11-13T00:28:54.299Z,10.99
2022-11-13T00:31:22.387Z,10.92
2022-11-13T00:34:25.813Z,10.85
2022-11-13T00:36:38.104Z,10.80
2022-11-13T00:39:05.789Z,10.85
2022-11-13T00:41:35.283Z,10.78
2022-11-13T00:44:04.006Z,10.72
2022-11-13T00:46:31.684Z,10.67
2022-11-13T00:48:59.368Z,10.46
2022-11-13T00:51:27.023Z,10.39
2022-11-13T00:53:54.678Z,10.38
2022-11-13T00:56:22.356Z,10.53
2022-11-13T00:58:51.369Z,10.23
2022-11-13T01:01:20.652Z,10.29
2022-11-13T01:03:48.368Z,10.58
2022-11-13T01:06:18.544Z,10.59
2022-11-13T01:08:46.236Z,10.47
2022-11-13T01:11:16.228Z,10.51
2022-11-13T01:13:45.273Z,10.49
2022-11-13T01:16:14.969Z,10.17
2022-11-13T01:18:43.239Z,10.20
2022-11-13T01:21:12.631Z,10.12
2022-11-13T01:23:40.401Z,10.10
2022-11-13T01:26:09.626Z,10.14
2022-11-13T01:28:37.717Z,10.14
2022-11-13T01:31:06.521Z,9.92
2022-11-13T01:33:35.848Z,10.13
2022-11-13T01:36:05.156Z,10.17
2022-11-13T01:38:36.226Z,10.29
2022-11-13T01:41:05.158Z,9.89
2022-11-13T01:43:34.512Z,10.24
2022-11-13T01:46:21.428Z,10.03
2022-11-13T01:48:52.909Z,10.10
2022-11-13T01:51:25.652Z,9.87
2022-11-13T01:53:54.177Z,9.56
2022-11-13T01:56:22.610Z,9.62
2022-11-13T01:58:54.288Z,10.07
2022-11-13T02:01:21.965Z,9.58
2022-11-13T02:03:51.012Z,9.68
2022-11-13T02:06:18.781Z,9.85
2022-11-13T02:08:46.421Z,10.13
2022-11-13T02:11:14.430Z,9.88
2022-11-13T02:13:42.273Z,9.86
2022-11-13T02:16:10.501Z,9.96
2022-11-13T02:18:38.488Z,9.83
2022-11-13T02:21:16.216Z,9.88
2022-11-13T02:23:47.572Z,9.89
2022-11-13T02:26:17.758Z,9.58
2022-11-13T02:28:45.919Z,9.91
2022-11-13T02:31:14.829Z,9.49
2022-11-13T02:33:42.535Z,9.72
2022-11-13T02:36:10.928Z,9.82
2022-11-13T02:38:39.752Z,9.39
2022-11-13T02:41:07.520Z,9.89
2022-11-13T02:43:36.792Z,9.88
2022-11-13T02:46:04.970Z,9.88
2022-11-13T02:48:32.704Z,9.71
2022-11-13T02:51:00.372Z,9.83
2022-11-13T02:53:28.008Z,9.93
2022-11-13T02:55:55.676Z,9.99
2022-11-13T02:58:23.300Z,9.97
2022-11-13T03:00:52.396Z,9.86
2022-11-13T03:03:41.021Z,9.95
2022-11-13T03:06:07.772Z,9.99
2022-11-13T03:08:36.478Z,10.07
2022-11-13T03:11:08.558Z,10.13
2022-11-13T03:13:36.356Z,10.09
2022-11-13T03:16:13.899Z,10.09
2022-11-13T03:18:41.835Z,10.02
2022-11-13T03:21:11.168Z,9.99
2022-11-13T03:23:38.885Z,10.02
2022-11-13T03:26:08.021Z,10.02
2022-11-13T03:28:35.900Z,9.91
2022-11-13T03:31:04.733Z,10.08
2022-11-13T03:33:34.220Z,9.93
2022-11-13T03:36:01.951Z,10.04
2022-11-13T03:38:29.942Z,10.03
2022-11-13T03:40:58.010Z,10.06
2022-11-13T03:43:25.674Z,10.11
2022-11-13T03:45:53.301Z,10.08
2022-11-13T03:48:20.964Z,10.18
2022-11-13T03:50:54.495Z,10.16
2022-11-13T03:53:22.172Z,10.11
2022-11-13T03:55:49.839Z,10.11
2022-11-13T03:58:17.641Z,10.26
2022-11-13T04:00:45.552Z,10.07
2022-11-13T04:03:13.364Z,10.41
2022-11-13T04:05:41.293Z,10.54
2022-11-13T04:08:10.487Z,10.38
2022-11-13T04:10:38.156Z,10.27
2022-11-13T04:13:05.793Z,10.13
2022-11-13T04:15:33.464Z,9.98
2022-11-13T04:18:01.138Z,9.77
2022-11-13T04:20:28.834Z,9.85
2022-11-13T04:22:57.016Z,9.76
2022-11-13T04:25:26.096Z,9.77
2022-11-13T04:27:54.327Z,9.59
2022-11-13T04:30:22.007Z,9.54
2022-11-13T04:32:49.634Z,9.54
2022-11-13T04:35:17.339Z,9.69
2022-11-13T04:37:45.012Z,9.48
2022-11-13T04:40:13.068Z,9.40
2022-11-13T04:42:50.886Z,9.52
2022-11-13T04:45:19.678Z,9.15
2022-11-13T04:47:47.544Z,9.23
2022-11-13T04:50:16.534Z,9.47
2022-11-13T04:52:44.753Z,9.25
2022-11-13T04:55:12.891Z,9.08
2022-11-13T04:57:42.034Z,8.72
2022-11-13T05:00:11.066Z,8.93
2022-11-13T05:02:38.755Z,8.68
2022-11-13T05:05:07.176Z,8.73
2022-11-13T05:07:34.835Z,8.68
2022-11-13T05:10:02.495Z,8.99
2022-11-13T05:12:30.171Z,8.71
2022-11-13T05:14:59.146Z,8.79
2022-11-13T05:17:26.867Z,8.69
2022-11-13T05:19:54.630Z,8.63
2022-11-13T05:22:22.300Z,8.74
2022-11-13T05:24:49.917Z,8.50
2022-11-13T05:27:18.026Z,8.39
2022-11-13T05:29:45.742Z,8.74
2022-11-13T05:32:15.060Z,8.72
2022-11-13T05:34:42.744Z,8.51
2022-11-13T05:37:10.375Z,8.57
2022-11-13T05:39:38.024Z,8.66
2022-11-13T05:42:06.735Z,8.68
2022-11-13T05:44:34.462Z,8.40
2022-11-13T05:47:02.128Z,8.56
2022-11-13T05:49:31.123Z,8.73
2022-11-13T05:51:58.772Z,8.74
2022-11-13T05:54:26.418Z,8.64
2022-11-13T05:56:54.048Z,8.64
2022-11-13T05:59:21.716Z,8.37
2022-11-13T06:01:49.382Z,8.45
2022-11-13T06:04:17.080Z,8.49
2022-11-13T06:06:46.106Z,8.38
2022-11-13T06:09:17.158Z,8.65
2022-11-13T06:11:45.128Z,8.74
2022-11-13T06:14:12.789Z,8.76
2022-11-13T06:16:40.957Z,8.52
2022-11-13T06:19:11.003Z,8.77
2022-11-13T06:21:40.841Z,8.65
2022-11-13T06:24:12.711Z,8.81
2022-11-13T06:26:40.688Z,8.93
2022-11-13T06:29:10.696Z,8.73
2022-11-13T06:31:38.744Z,8.67
2022-11-13T06:34:07.295Z,8.69
2022-11-13T06:36:36.250Z,8.82
2022-11-13T06:39:07.009Z,8.73
2022-11-13T06:41:36.291Z,8.84
2022-11-13T06:44:03.982Z,8.75
2022-11-13T06:46:31.955Z,8.74
2022-11-13T06:48:59.843Z,8.70
2022-11-13T06:51:28.912Z,8.73
2022-11-13T06:53:56.935Z,8.44
2022-11-13T06:56:25.197Z,8.73
2022-11-13T06:58:54.977Z,8.75
2022-11-13T07:01:24.376Z,8.50
2022-11-13T07:03:52.119Z,8.51
2022-11-13T07:06:21.808Z,8.41
2022-11-13T07:08:49.576Z,8.42
2022-11-13T07:11:18.382Z,8.59
2022-11-13T07:13:46.178Z,8.24
2022-11-13T07:16:18.010Z,8.62
2022-11-13T07:18:46.168Z,8.50
2022-11-13T07:21:13.903Z,8.66
2022-11-13T07:23:43.312Z,8.46
2022-11-13T07:26:57.832Z,8.67
2022-11-13T07:29:25.485Z,8.66
2022-11-13T07:31:53.499Z,8.79
2022-11-13T07:34:21.178Z,8.82
2022-11-13T07:36:48.795Z,9.04
2022-11-13T07:39:16.438Z,8.95
2022-11-13T07:41:44.145Z,8.95
2022-11-13T07:44:27.272Z,8.89
2022-11-13T07:47:00.740Z,9.04
2022-11-13T07:49:28.396Z,9.06
2022-11-13T07:51:56.025Z,8.96
2022-11-13T07:54:23.687Z,9.23
2022-11-13T07:56:51.347Z,9.23
2022-11-13T07:59:20.323Z,8.96
2022-11-13T08:01:48.067Z,8.90
2022-11-13T08:04:15.688Z,9.40
2022-11-13T08:06:43.483Z,9.14
2022-11-13T08:09:11.168Z,9.07
2022-11-13T08:11:38.866Z,9.13
2022-11-13T08:14:06.530Z,9.20
2022-11-13T08:16:35.595Z,9.11
2022-11-13T08:19:03.401Z,9.59
2022-11-13T08:21:31.371Z,9.67
2022-11-13T08:23:59.090Z,9.86
2022-11-13T08:26:26.795Z,9.79
2022-11-13T08:28:54.445Z,10.10
2022-11-13T08:31:22.097Z,10.14
2022-11-13T08:33:51.069Z,9.97
2022-11-13T08:36:18.727Z,9.96
2022-11-13T08:38:46.371Z,10.09
2022-11-13T08:41:14.012Z,9.91
2022-11-13T08:43:41.665Z,10.06
2022-11-13T08:46:09.341Z,10.29
2022-11-13T08:48:37.696Z,10.28
2022-11-13T08:51:07.047Z,10.51
2022-11-13T08:53:34.677Z,10.21
2022-11-13T08:56:02.963Z,10.35
2022-11-13T08:58:30.940Z,10.59
2022-11-13T09:01:01.507Z,10.62
2022-11-13T09:03:29.248Z,10.91
2022-11-13T09:05:56.948Z,11.02
2022-11-13T09:08:26.199Z,11.05
2022-11-13T09:10:54.152Z,10.75
2022-11-13T09:13:21.772Z,11.39
2022-11-13T09:15:49.442Z,11.65
2022-11-13T09:18:17.065Z,11.33
2022-11-13T09:20:44.801Z,11.27
2022-11-13T09:23:12.484Z,11.40
2022-11-13T09:25:41.532Z,11.55
2022-11-13T09:28:09.832Z,11.20
2022-11-13T09:30:39.045Z,11.62
2022-11-13T09:33:07.436Z,11.50
2022-11-13T09:35:35.120Z,11.62
2022-11-13T09:38:07.923Z,11.88
2022-11-13T09:40:43.287Z,11.87
2022-11-13T09:43:21.517Z,12.26
2022-11-13T09:45:49.539Z,12.27
2022-11-13T09:48:25.268Z,12.28
2022-11-13T09:50:53.482Z,12.18
2022-11-13T09:53:21.323Z,12.96
2022-11-13T09:55:58.086Z,12.81
2022-11-13T09:58:32.405Z,12.88
2022-11-13T10:01:01.700Z,13.01
2022-11-13T10:06:30.609Z,12.70
2022-11-13T10:08:59.620Z,13.03
2022-11-13T10:11:39.449Z,12.69
2022-11-13T10:14:19.169Z,13.06
2022-11-13T10:16:50.440Z,13.05
2022-11-13T10:19:22.768Z,12.93
2022-11-13T10:22:07.813Z,13.44
2022-11-13T10:24:42.985Z,14.00
2022-11-13T10:27:13.299Z,14.05
2022-11-13T10:29:46.184Z,13.75
2022-11-13T10:32:18.721Z,14.19
2022-11-13T10:34:50.189Z,13.80
2022-11-13T10:37:28.620Z,14.09
2022-11-13T10:39:56.253Z,13.58
2022-11-13T10:42:29.648Z,13.69
2022-11-13T10:44:59.345Z,13.52
2022-11-13T10:47:56.669Z,13.80
2022-11-13T10:50:21.533Z,14.43
2022-11-13T10:52:50.555Z,14.15
2022-11-13T10:55:24.257Z,14.02
2022-11-13T10:58:01.352Z,14.27
2022-11-13T11:00:32.918Z,14.52
2022-11-13T11:03:00.700Z,14.65
2022-11-13T11:05:29.706Z,14.76
2022-11-13T11:07:58.219Z,13.80
2022-11-13T11:10:32.053Z,13.56
2022-11-13T11:13:04.476Z,13.92
2022-11-13T11:15:41.053Z,14.23
2022-11-13T11:18:20.199Z,14.31
2022-11-13T11:20:50.948Z,14.02
2022-11-13T11:23:24.349Z,14.46
2022-11-13T11:25:55.976Z,13.90
2022-11-13T11:28:31.453Z,13.92
2022-11-13T11:31:06.184Z,13.91
2022-11-13T11:33:36.313Z,14.23
2022-11-13T11:36:09.716Z,14.20
2022-11-13T11:38:43.624Z,14.22
2022-11-13T11:41:16.904Z,14.94
2022-11-13T11:43:49.944Z,15.15
2022-11-13T11:46:23.394Z,14.58
2022-11-13T11:48:51.836Z,15.01
2022-11-13T11:51:25.437Z,15.01
2022-11-13T11:54:31.365Z,14.20
2022-11-13T11:57:02.672Z,14.74
2022-11-13T11:59:38.483Z,15.10
2022-11-13T12:02:36.158Z,15.30
2022-11-13T12:05:20.366Z,15.40
2022-11-13T12:07:56.488Z,15.37
2022-11-13T12:10:31.245Z,15.51
2022-11-13T12:13:14.576Z,15.37
2022-11-13T12:15:50.947Z,15.41
2022-11-13T12:18:28.821Z,15.79
2022-11-13T12:21:03.700Z,15.38
2022-11-13T12:23:38.534Z,15.15
2022-11-13T12:26:13.552Z,15.68
2022-11-13T12:30:15.365Z,15.33
2022-11-13T12:33:00.754Z,15.68
2022-11-13T12:35:28.923Z,16.46
2022-11-13T12:37:59.147Z,15.98
2022-11-13T12:40:32.710Z,15.85
2022-11-13T12:43:24.104Z,15.58
2022-11-13T12:45:54.456Z,15.97
2022-11-13T12:48:28.191Z,16.06
2022-11-13T12:51:01.140Z,15.98
2022-11-13T12:53:31.135Z,15.99
2022-11-13T12:56:00.924Z,16.30
2022-11-13T12:58:30.865Z,16.37
2022-11-13T13:01:03.424Z,16.85
2022-11-13T13:03:47.009Z,16.57
2022-11-13T13:06:25.239Z,16.38
2022-11-13T13:09:04.405Z,16.43
2022-11-13T13:11:39.544Z,16.64
2022-11-13T13:14:21.693Z,16.02
2022-11-13T13:16:50.696Z,16.41
2022-11-13T13:19:26.808Z,16.42
2022-11-13T13:21:54.618Z,15.96
2022-11-13T13:24:30.176Z,16.27
2022-11-13T13:26:57.962Z,16.33
2022-11-13T13:29:27.076Z,16.00
2022-11-13T13:32:10.063Z,16.10
2022-11-13T13:34:47.707Z,16.01
2022-11-13T13:37:23.398Z,15.75
2022-11-13T13:39:58.442Z,16.27
2022-11-13T13:42:42.298Z,15.71
2022-11-13T13:45:24.932Z,15.87
2022-11-13T13:47:56.089Z,15.98
2022-11-13T13:50:26.263Z,16.22
2022-11-13T13:52:55.943Z,16.07
2022-11-13T13:55:28.855Z,16.16
2022-11-13T13:57:57.741Z,15.85
2022-11-13T14:00:26.984Z,15.96
2022-11-13T14:02:56.004Z,15.85
2022-11-13T14:05:31.391Z,15.98
2022-11-13T14:07:59.698Z,16.14
2022-11-13T14:10:28.925Z,16.18
2022-11-13T14:12:57.517Z,15.92
2022-11-13T14:15:28.296Z,15.68
2022-11-13T14:18:08.444Z,15.82
2022-11-13T14:20:41.936Z,16.03
2022-11-13T14:23:12.419Z,15.65
2022-11-13T14:25:40.297Z,15.70
2022-11-13T14:28:15.060Z,15.67
2022-11-13T14:30:42.896Z,15.89
2022-11-13T14:33:14.883Z,15.84
2022-11-13T14:35:42.572Z,15.58
2022-11-13T14:38:20.248Z,15.01
2022-11-13T14:40:49.156Z,15.60
2022-11-13T14:43:21.692Z,15.65
2022-11-13T14:45:58.165Z,15.81
2022-11-13T14:48:28.630Z,15.38
2022-11-13T14:50:58.179Z,15.41
2022-11-13T14:53:31.569Z,15.10
2022-11-13T14:56:02.503Z,15.32
2022-11-13T14:58:31.677Z,15.30
2022-11-13T15:01:00.140Z,14.99
2022-11-13T15:03:29.713Z,14.99
2022-11-13T15:05:57.616Z,14.82
2022-11-13T15:08:25.303Z,14.61
2022-11-13T15:10:53.227Z,14.65
2022-11-13T15:13:20.885Z,14.64
2022-11-13T15:15:48.530Z,14.28
2022-11-13T15:18:18.240Z,14.22
2022-11-13T15:20:47.428Z,14.40
2022-11-13T15:23:16.936Z,14.24
2022-11-13T15:25:44.648Z,14.08
2022-11-13T15:28:12.296Z,14.09
2022-11-13T15:30:39.957Z,13.93
2022-11-13T15:33:14.307Z,13.97
2022-11-13T15:35:43.090Z,13.74
2022-11-13T15:38:12.545Z,13.29
2022-11-13T15:40:40.445Z,13.24
2022-11-13T15:43:13.084Z,13.46
2022-11-13T15:45:44.183Z,13.20
2022-11-13T15:48:13.499Z,12.90
2022-11-13T15:50:41.216Z,12.80
2022-11-13T15:53:10.007Z,13.10
2022-11-13T15:55:40.768Z,12.94
2022-11-13T15:58:14.986Z,12.88
2022-11-13T16:00:42.916Z,12.48
2022-11-13T16:03:12.049Z,12.61
2022-11-13T16:05:39.812Z,12.63
2022-11-13T16:08:12.603Z,12.57
2022-11-13T16:10:41.613Z,12.58
2022-11-13T16:13:09.268Z,12.62
2022-11-13T16:15:36.896Z,12.63
2022-11-13T16:18:04.698Z,12.22
2022-11-13T16:20:32.483Z,12.83
2022-11-13T16:23:00.169Z,12.10
2022-11-13T16:25:27.840Z,12.40
2022-11-13T16:27:56.865Z,12.18
2022-11-13T16:30:25.320Z,12.19
2022-11-13T16:32:53.234Z,12.44
2022-11-13T16:35:21.572Z,11.92
2022-11-13T16:37:49.270Z,11.92
2022-11-13T16:40:21.089Z,11.95
2022-11-13T16:42:48.785Z,11.85
2022-11-13T16:45:17.980Z,12.25
2022-11-13T16:47:46.399Z,11.93
2022-11-13T16:50:15.583Z,11.77
2022-11-13T16:52:43.331Z,11.43
2022-11-13T16:55:11.244Z,11.34
2022-11-13T16:57:39.118Z,11.56
2022-11-13T17:00:08.378Z,11.49
2022-11-13T17:02:37.523Z,11.48
2022-11-13T17:05:05.936Z,11.51
2022-11-13T17:07:33.658Z,11.41
2022-11-13T17:10:29.814Z,11.52
2022-11-13T17:12:52.058Z,11.39
2022-11-13T17:15:20.236Z,11.27
2022-11-13T17:17:49.456Z,11.15
2022-11-13T17:20:19.392Z,11.24
2022-11-13T17:22:49.737Z,11.48
2022-11-13T17:25:18.518Z,11.43
2022-11-13T17:27:46.367Z,11.48
2022-11-13T17:30:15.162Z,10.92
2022-11-13T17:32:43.793Z,11.18
2022-11-13T17:35:14.399Z,10.89
2022-11-13T17:37:42.394Z,11.13
2022-11-13T17:40:11.306Z,11.01
2022-11-13T17:42:38.967Z,10.94
2022-11-13T17:45:07.661Z,11.11
2022-11-13T17:47:35.406Z,10.67
2022-11-13T17:50:07.290Z,10.72
2022-11-13T17:52:36.956Z,10.63
2022-11-13T17:55:07.271Z,10.63
2022-11-13T17:57:34.996Z,10.64
2022-11-13T18:00:02.755Z,10.51
2022-11-13T18:02:30.572Z,10.43
2022-11-13T18:05:01.153Z,10.27
2022-11-13T18:07:28.977Z,10.29
2022-11-13T18:09:58.279Z,10.47
2022-11-13T18:12:25.905Z,10.11
2022-11-13T18:14:53.579Z,10.18
2022-11-13T18:17:22.058Z,10.58
2022-11-13T18:19:50.544Z,10.25
2022-11-13T18:22:18.296Z,10.21
2022-11-13T18:24:45.994Z,10.09
2022-11-13T18:27:15.287Z,10.14
2022-11-13T18:29:42.929Z,9.86
2022-11-13T18:32:10.654Z,9.87
2022-11-13T18:34:38.292Z,9.95
2022-11-13T18:37:06.004Z,9.89
2022-11-13T18:39:33.643Z,9.94
2022-11-13T18:42:01.302Z,9.70
2022-11-13T18:44:30.452Z,9.78
2022-11-13T18:46:58.128Z,9.54
2022-11-13T18:49:25.808Z,9.43
2022-11-13T18:51:53.454Z,9.47
2022-11-13T18:54:21.164Z,9.23
2022-11-13T18:56:48.854Z,8.95
2022-11-13T18:59:16.546Z,9.14
2022-11-13T19:01:45.598Z,8.92
2022-11-13T19:04:24.228Z,8.95
2022-11-13T19:06:52.448Z,9.16
2022-11-13T19:09:20.328Z,9.33
2022-11-13T19:11:48.226Z,9.03
2022-11-13T19:14:17.354Z,8.64
2022-11-13T19:16:46.488Z,8.59
2022-11-13T19:19:17.387Z,8.57
2022-11-13T19:21:45.683Z,8.36
2022-11-13T19:24:14.852Z,8.55
2022-11-13T19:26:43.047Z,8.34
2022-11-13T19:29:11.048Z,8.49
2022-11-13T19:31:38.752Z,8.31
2022-11-13T19:34:08.815Z,8.40
2022-11-13T19:36:37.441Z,8.15
2022-11-13T19:39:05.935Z,8.07
2022-11-13T19:41:33.775Z,8.15
2022-11-13T19:44:01.413Z,8.24
2022-11-13T19:46:31.844Z,7.95
2022-11-13T19:48:59.526Z,7.77
2022-11-13T19:51:28.596Z,8.01
2022-11-13T19:53:58.131Z,7.90
2022-11-13T19:56:27.117Z,7.85
2022-11-13T19:58:55.444Z,7.82
2022-11-13T20:01:24.637Z,7.63
2022-11-13T20:03:55.119Z,7.54
2022-11-13T20:06:22.926Z,7.31
2022-11-13T20:08:51.924Z,7.07
2022-11-13T20:11:20.384Z,7.16
2022-11-13T20:13:48.281Z,7.12
2022-11-13T20:16:17.318Z,7.19
2022-11-13T20:18:45.318Z,6.77
2022-11-13T20:21:13.040Z,7.36
2022-11-13T20:23:40.729Z,7.10
2022-11-13T20:26:13.592Z,6.94
2022-11-13T20:28:41.270Z,6.95
2022-11-13T20:31:14.164Z,7.18
2022-11-13T20:33:41.813Z,6.72
2022-11-13T20:36:10.584Z,6.86
2022-11-13T20:38:38.392Z,6.56
2022-11-13T20:41:06.629Z,6.54
2022-11-13T20:43:35.657Z,6.63
2022-11-13T20:46:04.162Z,6.45
2022-11-13T20:48:32.124Z,6.67
2022-11-13T20:51:06.239Z,6.60
2022-11-13T20:53:35.683Z,6.79
2022-11-13T20:56:03.465Z,6.79
2022-11-13T20:58:31.689Z,6.73
2022-11-13T21:01:04.648Z,6.52
2022-11-13T21:03:34.938Z,6.88
2022-11-13T21:06:06.726Z,6.60
2022-11-13T21:08:34.689Z,6.56
2022-11-13T21:11:02.909Z,6.92
2022-11-13T21:13:30.769Z,6.83
2022-11-13T21:15:58.476Z,6.84
2022-11-13T21:18:27.668Z,6.88
2022-11-13T21:20:55.594Z,6.56
2022-11-13T21:23:23.259Z,6.96
2022-11-13T21:25:59.539Z,7.13
2022-11-13T21:28:32.300Z,6.81
2022-11-13T21:31:02.737Z,7.15
2022-11-13T21:33:31.814Z,7.05
2022-11-13T21:36:05.235Z,6.94
2022-11-13T21:38:32.884Z,7.09
2022-11-13T21:41:14.717Z,7.12
2022-11-13T21:43:42.380Z,7.26
2022-11-13T21:46:10.058Z,7.17
2022-11-13T21:48:39.490Z,7.12
2022-11-13T21:51:07.432Z,6.88
2022-11-13T21:53:35.113Z,6.78
2022-11-13T21:56:02.816Z,7.09
2022-11-13T21:58:31.931Z,6.82
2022-11-13T22:00:59.986Z,6.94
2022-11-13T22:03:28.480Z,7.27
2022-11-13T22:06:19.528Z,6.91
2022-11-13T22:08:48.780Z,7.13
2022-11-13T22:11:16.441Z,7.18
2022-11-13T22:13:44.128Z,6.75
2022-11-13T22:16:12.852Z,6.85
2022-11-13T22:18:40.632Z,7.18
2022-11-13T22:21:11.308Z,7.30
2022-11-13T22:23:40.807Z,7.16
2022-11-13T22:26:10.079Z,6.66
2022-11-13T22:28:39.429Z,7.25
2022-11-13T22:31:07.631Z,7.22
2022-11-13T22:33:37.059Z,7.27
2022-11-13T22:36:05.887Z,7.25
2022-11-13T22:38:34.395Z,7.29
2022-11-13T22:41:07.945Z,7.49
2022-11-13T22:43:37.205Z,7.14
2022-11-13T22:46:06.330Z,7.30
2022-11-13T22:48:35.253Z,7.20
2022-11-13T22:51:04.225Z,7.39
2022-11-13T22:53:31.897Z,7.43
2022-11-13T22:56:03.492Z,7.78
2022-11-13T22:58:32.664Z,7.23
2022-11-13T23:01:07.736Z,7.49
2022-11-13T23:03:38.196Z,7.62
2022-11-13T23:06:06.388Z,7.66
2022-11-13T23:08:38.555Z,7.26
2022-11-13T23:11:06.704Z,7.51
2022-11-13T23:13:35.783Z,7.64
2022-11-13T23:16:03.693Z,7.38
2022-11-13T23:18:32.130Z,7.63
2022-11-13T23:21:00.309Z,7.51
2022-11-13T23:23:27.945Z,7.52
2022-11-13T23:25:55.640Z,7.58
2022-11-13T23:28:23.340Z,7.47
2022-11-13T23:30:52.364Z,7.66
2022-11-13T23:33:20.004Z,7.77
2022-11-13T23:35:47.711Z,7.82
2022-11-13T23:38:15.398Z,7.80
2022-11-13T23:40:43.188Z,8.02
2022-11-13T23:43:10.868Z,7.67
2022-11-13T23:45:39.539Z,8.12
2022-11-13T23:48:08.731Z,8.09
2022-11-13T23:50:37.688Z,7.74
2022-11-13T23:53:05.436Z,8.06
2022-11-13T23:55:33.214Z,8.11
2022-11-13T23:58:01.651Z,8.13
